Impacts TAF Board
For situational awareness. Not to be used for flight planning purposes.
IDs:

KIAH - Houston/Bush Intl, TX, US

Issued at 0520 UTC 23 Oct 2018
Updated at 0805 UTC 23 Oct 2018
Potential Impact None Slight Moderate High
Time<<24/09Z 24/10Z 24/11Z 24/12Z 24/13Z 24/14Z 24/15Z 24/16Z 24/17Z 24/18Z 24/19Z 24/20Z 24/21Z
Type PRVL PRVL PRVL
VIS >6 >6 >6
CIG 12 12 12
Cover OVC OVC OVC
FltCat MVFR MVFR MVFR
WX VCSH VCSH VCSH
WDir 20 20 20
WSpd 7 7 7
WGst -- -- --
Raw TAF
KIAH 230520Z 2306/2412 01005KT P6SM -RA FEW035 SCT060 OVC120
  FM231000 01005KT P6SM -RA SCT015 OVC045
  FM231800 02007KT P6SM SCT035 BKN150
  FM240000 01004KT P6SM FEW040 BKN250
  FM240800 02007KT P6SM VCSH BKN012 OVC040


METAR Board
Radar Display
Forecast Discussion
For situational awareness. Not to be used for flight planning purposes.